Aviation Digital Data Service (ADDS)

Output produced by METARs form (0400 UTC 23 September 2017)
found at http://www.aviationweather.gov/adds/metars/
 
KSTC 230353Z 19012KT 10SM CLR 27/21 A2981 RMK AO2 SLP095 T02720206
KBRD 230353Z AUTO 18012KT 10SM CLR 26/21 A2975 RMK AO2 SLP067 T02610206